sensor_id;sensor_type;location;lat;lon;timestamp;temperature;humidity
3876;DHT22;1953;51.222;6.624;2023-05-29T00:01:10;17.10;1.00
3876;DHT22;1953;51.222;6.624;2023-05-29T00:05:53;17.10;1.00
3876;DHT22;1953;51.222;6.624;2023-05-29T00:12:21;17.00;1.00
3876;DHT22;1953;51.222;6.624;2023-05-29T00:17:04;16.80;1.00
3876;DHT22;1953;51.222;6.624;2023-05-29T00:21:47;16.80;1.00
3876;DHT22;1953;51.222;6.624;2023-05-29T00:26:29;16.80;1.00
3876;DHT22;1953;51.222;6.624;2023-05-29T00:31:13;16.70;1.00
3876;DHT22;1953;51.222;6.624;2023-05-29T00:35:56;16.50;1.00
3876;DHT22;1953;51.222;6.624;2023-05-29T00:40:39;16.50;1.00
3876;DHT22;1953;51.222;6.624;2023-05-29T00:45:22;16.50;1.00
3876;DHT22;1953;51.222;6.624;2023-05-29T00:50:08;16.30;1.00
3876;DHT22;1953;51.222;6.624;2023-05-29T00:54:52;16.20;1.00
3876;DHT22;1953;51.222;6.624;2023-05-29T00:59:35;16.10;1.00
3876;DHT22;1953;51.222;6.624;2023-05-29T01:04:17;15.90;1.00
3876;DHT22;1953;51.222;6.624;2023-05-29T01:09:01;15.90;1.00
3876;DHT22;1953;51.222;6.624;2023-05-29T01:13:45;15.70;1.00
3876;DHT22;1953;51.222;6.624;2023-05-29T01:18:37;15.80;1.00
3876;DHT22;1953;51.222;6.624;2023-05-29T01:23:34;15.80;1.00
3876;DHT22;1953;51.222;6.624;2023-05-29T01:28:20;15.80;1.00
3876;DHT22;1953;51.222;6.624;2023-05-29T01:33:03;15.80;1.00
3876;DHT22;1953;51.222;6.624;2023-05-29T01:37:46;15.70;1.00
3876;DHT22;1953;51.222;6.624;2023-05-29T01:42:29;15.50;1.00
3876;DHT22;1953;51.222;6.624;2023-05-29T01:47:13;15.30;1.00
3876;DHT22;1953;51.222;6.624;2023-05-29T01:51:57;15.20;1.00
3876;DHT22;1953;51.222;6.624;2023-05-29T01:56:40;15.10;1.00
3876;DHT22;1953;51.222;6.624;2023-05-29T02:01:22;15.00;1.00
3876;DHT22;1953;51.222;6.624;2023-05-29T02:06:07;14.80;1.00
3876;DHT22;1953;51.222;6.624;2023-05-29T02:10:49;14.70;1.00
3876;DHT22;1953;51.222;6.624;2023-05-29T02:15:32;14.70;1.00
3876;DHT22;1953;51.222;6.624;2023-05-29T02:20:14;14.50;1.00
3876;DHT22;1953;51.222;6.624;2023-05-29T02:24:59;14.40;1.00
3876;DHT22;1953;51.222;6.624;2023-05-29T02:29:41;14.20;1.00
3876;DHT22;1953;51.222;6.624;2023-05-29T02:34:24;14.20;1.00
3876;DHT22;1953;51.222;6.624;2023-05-29T02:39:08;14.20;1.00
3876;DHT22;1953;51.222;6.624;2023-05-29T02:43:53;14.00;1.00
3876;DHT22;1953;51.222;6.624;2023-05-29T02:48:35;13.90;1.00
3876;DHT22;1953;51.222;6.624;2023-05-29T02:53:18;13.80;1.00
3876;DHT22;1953;51.222;6.624;2023-05-29T02:58:01;13.80;1.00
3876;DHT22;1953;51.222;6.624;2023-05-29T03:02:45;13.70;1.00
3876;DHT22;1953;51.222;6.624;2023-05-29T03:07:27;13.70;1.00
3876;DHT22;1953;51.222;6.624;2023-05-29T03:12:10;13.70;1.00
3876;DHT22;1953;51.222;6.624;2023-05-29T03:16:53;13.60;1.00
3876;DHT22;1953;51.222;6.624;2023-05-29T03:21:37;13.60;1.00
3876;DHT22;1953;51.222;6.624;2023-05-29T03:26:20;13.60;1.00
3876;DHT22;1953;51.222;6.624;2023-05-29T03:31:02;13.60;1.00
3876;DHT22;1953;51.222;6.624;2023-05-29T03:35:45;13.50;1.00
3876;DHT22;1953;51.222;6.624;2023-05-29T03:40:29;13.50;1.00
3876;DHT22;1953;51.222;6.624;2023-05-29T03:45:11;13.50;1.00
3876;DHT22;1953;51.222;6.624;2023-05-29T03:49:54;13.30;1.00
3876;DHT22;1953;51.222;6.624;2023-05-29T03:54:36;13.30;1.00
3876;DHT22;1953;51.222;6.624;2023-05-29T03:59:20;13.30;1.00
3876;DHT22;1953;51.222;6.624;2023-05-29T04:04:03;13.20;1.00
3876;DHT22;1953;51.222;6.624;2023-05-29T04:08:46;13.10;1.00
3876;DHT22;1953;51.222;6.624;2023-05-29T04:13:28;13.20;1.00
3876;DHT22;1953;51.222;6.624;2023-05-29T04:18:12;13.00;1.00
3876;DHT22;1953;51.222;6.624;2023-05-29T04:22:55;13.10;1.00
3876;DHT22;1953;51.222;6.624;2023-05-29T04:27:37;13.10;1.00
3876;DHT22;1953;51.222;6.624;2023-05-29T04:32:20;13.00;1.00
3876;DHT22;1953;51.222;6.624;2023-05-29T04:37:04;13.00;1.00
3876;DHT22;1953;51.222;6.624;2023-05-29T04:41:47;13.00;1.00
3876;DHT22;1953;51.222;6.624;2023-05-29T04:46:29;13.00;1.00
3876;DHT22;1953;51.222;6.624;2023-05-29T04:51:12;12.30;1.00
3876;DHT22;1953;51.222;6.624;2023-05-29T04:55:56;13.10;1.00
3876;DHT22;1953;51.222;6.624;2023-05-29T05:00:38;13.00;1.00
3876;DHT22;1953;51.222;6.624;2023-05-29T05:05:21;13.10;1.00
3876;DHT22;1953;51.222;6.624;2023-05-29T05:10:04;13.10;1.00
3876;DHT22;1953;51.222;6.624;2023-05-29T05:14:48;13.30;1.00
3876;DHT22;1953;51.222;6.624;2023-05-29T05:19:31;13.20;1.00
3876;DHT22;1953;51.222;6.624;2023-05-29T05:24:13;13.40;1.00
3876;DHT22;1953;51.222;6.624;2023-05-29T05:28:56;13.30;1.00
3876;DHT22;1953;51.222;6.624;2023-05-29T05:33:40;13.50;1.00
3876;DHT22;1953;51.222;6.624;2023-05-29T05:38:22;13.40;1.00
3876;DHT22;1953;51.222;6.624;2023-05-29T05:43:05;13.50;1.00
3876;DHT22;1953;51.222;6.624;2023-05-29T05:47:48;13.70;1.00
3876;DHT22;1953;51.222;6.624;2023-05-29T05:52:32;13.90;1.00
3876;DHT22;1953;51.222;6.624;2023-05-29T05:57:14;13.90;1.00
3876;DHT22;1953;51.222;6.624;2023-05-29T06:01:57;14.10;1.00
3876;DHT22;1953;51.222;6.624;2023-05-29T06:06:40;14.10;1.00
3876;DHT22;1953;51.222;6.624;2023-05-29T06:11:24;14.20;1.00
3876;DHT22;1953;51.222;6.624;2023-05-29T06:16:07;14.00;1.00
3876;DHT22;1953;51.222;6.624;2023-05-29T06:20:50;14.40;1.00
3876;DHT22;1953;51.222;6.624;2023-05-29T06:25:32;14.50;1.00
3876;DHT22;1953;51.222;6.624;2023-05-29T06:30:16;14.70;1.00
3876;DHT22;1953;51.222;6.624;2023-05-29T06:34:59;14.70;1.00
3876;DHT22;1953;51.222;6.624;2023-05-29T06:39:44;14.70;1.00
3876;DHT22;1953;51.222;6.624;2023-05-29T06:44:27;14.90;1.00
3876;DHT22;1953;51.222;6.624;2023-05-29T06:49:11;15.00;1.00
3876;DHT22;1953;51.222;6.624;2023-05-29T06:53:53;15.00;1.00
3876;DHT22;1953;51.222;6.624;2023-05-29T06:58:36;15.00;1.00
3876;DHT22;1953;51.222;6.624;2023-05-29T07:03:18;15.20;1.00
3876;DHT22;1953;51.222;6.624;2023-05-29T07:08:03;15.20;1.00
3876;DHT22;1953;51.222;6.624;2023-05-29T07:12:45;15.00;1.00
3876;DHT22;1953;51.222;6.624;2023-05-29T07:17:28;15.30;1.00
3876;DHT22;1953;51.222;6.624;2023-05-29T07:22:10;15.60;1.00
3876;DHT22;1953;51.222;6.624;2023-05-29T07:26:54;15.80;1.00
3876;DHT22;1953;51.222;6.624;2023-05-29T07:31:37;15.70;1.00
3876;DHT22;1953;51.222;6.624;2023-05-29T07:36:21;15.70;1.00
3876;DHT22;1953;51.222;6.624;2023-05-29T07:41:04;15.90;1.00
3876;DHT22;1953;51.222;6.624;2023-05-29T07:45:47;16.10;1.00
3876;DHT22;1953;51.222;6.624;2023-05-29T07:50:30;16.20;1.00
3876;DHT22;1953;51.222;6.624;2023-05-29T07:55:12;16.30;1.00
3876;DHT22;1953;51.222;6.624;2023-05-29T07:59:55;16.40;1.00
3876;DHT22;1953;51.222;6.624;2023-05-29T08:04:39;16.40;1.00
3876;DHT22;1953;51.222;6.624;2023-05-29T08:09:22;16.60;1.00
3876;DHT22;1953;51.222;6.624;2023-05-29T08:14:04;16.50;1.00
3876;DHT22;1953;51.222;6.624;2023-05-29T08:18:47;16.60;1.00
3876;DHT22;1953;51.222;6.624;2023-05-29T08:23:31;16.70;1.00
3876;DHT22;1953;51.222;6.624;2023-05-29T08:28:14;16.90;1.00
3876;DHT22;1953;51.222;6.624;2023-05-29T08:32:56;16.90;1.00
3876;DHT22;1953;51.222;6.624;2023-05-29T08:37:39;17.20;1.00
3876;DHT22;1953;51.222;6.624;2023-05-29T08:42:29;17.30;1.00
3876;DHT22;1953;51.222;6.624;2023-05-29T08:47:15;17.40;1.00
3876;DHT22;1953;51.222;6.624;2023-05-29T08:52:04;17.60;1.00
3876;DHT22;1953;51.222;6.624;2023-05-29T08:56:49;17.60;1.00
3876;DHT22;1953;51.222;6.624;2023-05-29T09:01:34;17.70;1.00
3876;DHT22;1953;51.222;6.624;2023-05-29T09:06:17;18.00;1.00
3876;DHT22;1953;51.222;6.624;2023-05-29T09:11:02;18.10;1.00
3876;DHT22;1953;51.222;6.624;2023-05-29T09:15:44;18.20;1.00
3876;DHT22;1953;51.222;6.624;2023-05-29T09:20:29;18.30;1.00
3876;DHT22;1953;51.222;6.624;2023-05-29T09:25:12;18.40;1.00
3876;DHT22;1953;51.222;6.624;2023-05-29T09:29:55;18.50;1.00
3876;DHT22;1953;51.222;6.624;2023-05-29T09:34:38;18.50;1.00
3876;DHT22;1953;51.222;6.624;2023-05-29T09:39:22;18.70;1.00
3876;DHT22;1953;51.222;6.624;2023-05-29T09:44:04;18.80;1.00
3876;DHT22;1953;51.222;6.624;2023-05-29T09:48:49;18.90;1.00
3876;DHT22;1953;51.222;6.624;2023-05-29T09:53:31;18.90;1.00
3876;DHT22;1953;51.222;6.624;2023-05-29T09:58:15;18.90;1.00
3876;DHT22;1953;51.222;6.624;2023-05-29T10:02:59;19.10;1.00
3876;DHT22;1953;51.222;6.624;2023-05-29T10:07:44;19.20;1.00
3876;DHT22;1953;51.222;6.624;2023-05-29T10:12:29;19.30;1.00
3876;DHT22;1953;51.222;6.624;2023-05-29T10:17:18;19.50;1.00
3876;DHT22;1953;51.222;6.624;2023-05-29T10:22:04;19.50;1.00
3876;DHT22;1953;51.222;6.624;2023-05-29T10:26:48;19.50;1.00
3876;DHT22;1953;51.222;6.624;2023-05-29T10:31:37;19.60;1.00
3876;DHT22;1953;51.222;6.624;2023-05-29T10:36:25;19.50;1.00
3876;DHT22;1953;51.222;6.624;2023-05-29T10:41:29;19.80;1.00
3876;DHT22;1953;51.222;6.624;2023-05-29T10:46:12;20.00;1.00
3876;DHT22;1953;51.222;6.624;2023-05-29T10:50:55;20.20;1.00
3876;DHT22;1953;51.222;6.624;2023-05-29T10:55:40;20.20;1.00
3876;DHT22;1953;51.222;6.624;2023-05-29T11:00:23;20.30;1.00
3876;DHT22;1953;51.222;6.624;2023-05-29T11:05:22;20.50;1.00
3876;DHT22;1953;51.222;6.624;2023-05-29T11:10:12;20.70;1.00
3876;DHT22;1953;51.222;6.624;2023-05-29T11:15:04;20.70;1.00
3876;DHT22;1953;51.222;6.624;2023-05-29T11:19:47;20.80;1.00
3876;DHT22;1953;51.222;6.624;2023-05-29T11:24:32;21.20;1.00
3876;DHT22;1953;51.222;6.624;2023-05-29T11:29:21;21.30;1.00
3876;DHT22;1953;51.222;6.624;2023-05-29T11:34:09;21.40;1.00
3876;DHT22;1953;51.222;6.624;2023-05-29T11:38:56;21.50;1.00
3876;DHT22;1953;51.222;6.624;2023-05-29T11:43:38;21.50;1.00
3876;DHT22;1953;51.222;6.624;2023-05-29T11:48:21;21.60;1.00
3876;DHT22;1953;51.222;6.624;2023-05-29T11:53:07;21.60;1.00
3876;DHT22;1953;51.222;6.624;2023-05-29T11:57:50;21.70;1.00
3876;DHT22;1953;51.222;6.624;2023-05-29T12:02:33;21.90;1.00
3876;DHT22;1953;51.222;6.624;2023-05-29T12:07:19;22.30;1.00
3876;DHT22;1953;51.222;6.624;2023-05-29T12:13:22;22.50;1.00
3876;DHT22;1953;51.222;6.624;2023-05-29T12:18:05;23.00;1.00
3876;DHT22;1953;51.222;6.624;2023-05-29T12:22:47;23.40;1.00
3876;DHT22;1953;51.222;6.624;2023-05-29T12:27:31;23.50;1.00
3876;DHT22;1953;51.222;6.624;2023-05-29T12:32:15;23.80;1.00
3876;DHT22;1953;51.222;6.624;2023-05-29T12:37:05;23.90;1.00
3876;DHT22;1953;51.222;6.624;2023-05-29T12:41:54;24.70;1.00
3876;DHT22;1953;51.222;6.624;2023-05-29T12:46:38;25.40;1.00
3876;DHT22;1953;51.222;6.624;2023-05-29T12:51:26;26.20;1.00
3876;DHT22;1953;51.222;6.624;2023-05-29T12:56:09;26.20;1.00
3876;DHT22;1953;51.222;6.624;2023-05-29T13:00:53;27.10;1.00
3876;DHT22;1953;51.222;6.624;2023-05-29T13:05:37;27.60;1.00
3876;DHT22;1953;51.222;6.624;2023-05-29T13:10:21;27.20;1.00
3876;DHT22;1953;51.222;6.624;2023-05-29T13:15:04;26.80;1.00
3876;DHT22;1953;51.222;6.624;2023-05-29T13:19:47;26.90;1.00
3876;DHT22;1953;51.222;6.624;2023-05-29T13:24:30;26.70;1.00
3876;DHT22;1953;51.222;6.624;2023-05-29T13:29:13;26.40;1.00
3876;DHT22;1953;51.222;6.624;2023-05-29T13:33:56;26.30;1.00
3876;DHT22;1953;51.222;6.624;2023-05-29T13:38:38;26.20;1.00
3876;DHT22;1953;51.222;6.624;2023-05-29T13:43:21;26.40;1.00
3876;DHT22;1953;51.222;6.624;2023-05-29T13:48:05;26.70;1.00
3876;DHT22;1953;51.222;6.624;2023-05-29T13:52:47;26.80;1.00
3876;DHT22;1953;51.222;6.624;2023-05-29T13:57:30;27.00;1.00
3876;DHT22;1953;51.222;6.624;2023-05-29T14:02:13;26.20;1.00
3876;DHT22;1953;51.222;6.624;2023-05-29T14:06:57;26.20;1.00
3876;DHT22;1953;51.222;6.624;2023-05-29T14:11:39;26.50;1.00
3876;DHT22;1953;51.222;6.624;2023-05-29T14:16:22;26.30;1.00
3876;DHT22;1953;51.222;6.624;2023-05-29T14:21:04;26.20;1.00
3876;DHT22;1953;51.222;6.624;2023-05-29T14:25:48;26.70;1.00
3876;DHT22;1953;51.222;6.624;2023-05-29T14:30:32;27.00;1.00
3876;DHT22;1953;51.222;6.624;2023-05-29T14:35:15;26.90;1.00
3876;DHT22;1953;51.222;6.624;2023-05-29T14:39:57;26.80;1.00
3876;DHT22;1953;51.222;6.624;2023-05-29T14:44:41;26.90;1.00
3876;DHT22;1953;51.222;6.624;2023-05-29T14:49:24;26.90;1.00
3876;DHT22;1953;51.222;6.624;2023-05-29T14:54:09;26.10;1.00
3876;DHT22;1953;51.222;6.624;2023-05-29T14:58:53;26.20;1.00
3876;DHT22;1953;51.222;6.624;2023-05-29T15:03:36;26.40;1.00
3876;DHT22;1953;51.222;6.624;2023-05-29T15:08:19;25.90;1.00
3876;DHT22;1953;51.222;6.624;2023-05-29T15:13:02;25.80;1.00
3876;DHT22;1953;51.222;6.624;2023-05-29T15:17:45;25.40;1.00
3876;DHT22;1953;51.222;6.624;2023-05-29T15:22:33;25.30;1.00
3876;DHT22;1953;51.222;6.624;2023-05-29T15:27:15;25.50;1.00
3876;DHT22;1953;51.222;6.624;2023-05-29T15:31:58;25.70;1.00
3876;DHT22;1953;51.222;6.624;2023-05-29T15:36:40;25.90;1.00
3876;DHT22;1953;51.222;6.624;2023-05-29T15:41:25;26.50;1.00
3876;DHT22;1953;51.222;6.624;2023-05-29T15:46:10;26.60;1.00
3876;DHT22;1953;51.222;6.624;2023-05-29T15:50:52;27.00;1.00
3876;DHT22;1953;51.222;6.624;2023-05-29T15:55:35;27.10;1.00
3876;DHT22;1953;51.222;6.624;2023-05-29T16:00:19;26.90;1.00
3876;DHT22;1953;51.222;6.624;2023-05-29T16:05:02;27.00;1.00
3876;DHT22;1953;51.222;6.624;2023-05-29T16:09:44;27.70;1.00
3876;DHT22;1953;51.222;6.624;2023-05-29T16:14:28;28.30;1.00
3876;DHT22;1953;51.222;6.624;2023-05-29T16:19:12;28.20;1.00
3876;DHT22;1953;51.222;6.624;2023-05-29T16:23:54;28.10;1.00
3876;DHT22;1953;51.222;6.624;2023-05-29T16:28:38;27.90;1.00
3876;DHT22;1953;51.222;6.624;2023-05-29T16:33:21;28.10;1.00
3876;DHT22;1953;51.222;6.624;2023-05-29T16:38:05;28.30;1.00
3876;DHT22;1953;51.222;6.624;2023-05-29T16:42:47;28.60;1.00
3876;DHT22;1953;51.222;6.624;2023-05-29T16:47:30;28.50;1.00
3876;DHT22;1953;51.222;6.624;2023-05-29T16:52:12;28.40;1.00
3876;DHT22;1953;51.222;6.624;2023-05-29T16:56:57;27.70;1.00
3876;DHT22;1953;51.222;6.624;2023-05-29T17:01:39;28.10;1.00
3876;DHT22;1953;51.222;6.624;2023-05-29T17:06:22;27.80;1.00
3876;DHT22;1953;51.222;6.624;2023-05-29T17:11:04;28.10;1.00
3876;DHT22;1953;51.222;6.624;2023-05-29T17:15:48;28.10;1.00
3876;DHT22;1953;51.222;6.624;2023-05-29T17:20:31;28.10;1.00
3876;DHT22;1953;51.222;6.624;2023-05-29T17:25:14;27.80;1.00
3876;DHT22;1953;51.222;6.624;2023-05-29T17:29:56;27.60;1.00
3876;DHT22;1953;51.222;6.624;2023-05-29T17:34:40;27.40;1.00
3876;DHT22;1953;51.222;6.624;2023-05-29T17:39:22;26.90;1.00
3876;DHT22;1953;51.222;6.624;2023-05-29T17:44:05;26.60;1.00
3876;DHT22;1953;51.222;6.624;2023-05-29T17:48:48;26.60;1.00
3876;DHT22;1953;51.222;6.624;2023-05-29T17:53:31;26.90;1.00
3876;DHT22;1953;51.222;6.624;2023-05-29T17:58:14;26.80;1.00
3876;DHT22;1953;51.222;6.624;2023-05-29T18:02:56;26.20;1.00
3876;DHT22;1953;51.222;6.624;2023-05-29T18:07:39;26.10;1.00
3876;DHT22;1953;51.222;6.624;2023-05-29T18:12:22;25.70;1.00
3876;DHT22;1953;51.222;6.624;2023-05-29T18:17:05;25.60;1.00
3876;DHT22;1953;51.222;6.624;2023-05-29T18:21:47;25.00;1.00
3876;DHT22;1953;51.222;6.624;2023-05-29T18:26:30;24.70;1.00
3876;DHT22;1953;51.222;6.624;2023-05-29T18:31:14;24.30;1.00
3876;DHT22;1953;51.222;6.624;2023-05-29T18:35:57;23.90;1.00
3876;DHT22;1953;51.222;6.624;2023-05-29T18:40:39;23.50;1.00
3876;DHT22;1953;51.222;6.624;2023-05-29T18:45:23;23.30;1.00
3876;DHT22;1953;51.222;6.624;2023-05-29T18:50:07;23.10;1.00
3876;DHT22;1953;51.222;6.624;2023-05-29T18:54:50;22.90;1.00
3876;DHT22;1953;51.222;6.624;2023-05-29T18:59:33;22.70;1.00
3876;DHT22;1953;51.222;6.624;2023-05-29T19:04:15;22.20;1.00
3876;DHT22;1953;51.222;6.624;2023-05-29T19:08:59;22.10;1.00
3876;DHT22;1953;51.222;6.624;2023-05-29T19:13:43;21.90;1.00
3876;DHT22;1953;51.222;6.624;2023-05-29T19:18:28;21.60;1.00
3876;DHT22;1953;51.222;6.624;2023-05-29T19:23:11;21.30;1.00
3876;DHT22;1953;51.222;6.624;2023-05-29T19:27:54;21.20;1.00
3876;DHT22;1953;51.222;6.624;2023-05-29T19:32:37;21.10;1.00
3876;DHT22;1953;51.222;6.624;2023-05-29T19:37:19;20.90;1.00
3876;DHT22;1953;51.222;6.624;2023-05-29T19:42:04;20.50;1.00
3876;DHT22;1953;51.222;6.624;2023-05-29T19:46:48;20.10;1.00
3876;DHT22;1953;51.222;6.624;2023-05-29T19:51:31;20.20;1.00
3876;DHT22;1953;51.222;6.624;2023-05-29T19:56:14;20.20;1.00
3876;DHT22;1953;51.222;6.624;2023-05-29T20:00:56;20.00;1.00
3876;DHT22;1953;51.222;6.624;2023-05-29T20:05:41;19.90;1.00
3876;DHT22;1953;51.222;6.624;2023-05-29T20:10:23;19.90;1.00
3876;DHT22;1953;51.222;6.624;2023-05-29T20:15:07;19.60;1.00
3876;DHT22;1953;51.222;6.624;2023-05-29T20:19:50;19.40;1.00
3876;DHT22;1953;51.222;6.624;2023-05-29T20:24:34;19.20;1.00
3876;DHT22;1953;51.222;6.624;2023-05-29T20:29:16;18.90;1.00
3876;DHT22;1953;51.222;6.624;2023-05-29T20:33:58;18.70;1.00
3876;DHT22;1953;51.222;6.624;2023-05-29T20:38:41;18.60;1.00
3876;DHT22;1953;51.222;6.624;2023-05-29T20:43:25;18.40;1.00
3876;DHT22;1953;51.222;6.624;2023-05-29T20:48:16;18.30;1.00
3876;DHT22;1953;51.222;6.624;2023-05-29T20:52:59;18.10;1.00
3876;DHT22;1953;51.222;6.624;2023-05-29T20:57:41;17.90;1.00
3876;DHT22;1953;51.222;6.624;2023-05-29T21:02:25;17.90;1.00
3876;DHT22;1953;51.222;6.624;2023-05-29T21:07:07;17.80;1.00
3876;DHT22;1953;51.222;6.624;2023-05-29T21:11:52;17.80;1.00
3876;DHT22;1953;51.222;6.624;2023-05-29T21:16:35;17.60;1.00
3876;DHT22;1953;51.222;6.624;2023-05-29T21:21:19;17.60;1.00
3876;DHT22;1953;51.222;6.624;2023-05-29T21:26:02;17.40;1.00
3876;DHT22;1953;51.222;6.624;2023-05-29T21:30:45;17.30;1.00
3876;DHT22;1953;51.222;6.624;2023-05-29T21:35:28;17.20;1.00
3876;DHT22;1953;51.222;6.624;2023-05-29T21:40:12;16.80;1.00
3876;DHT22;1953;51.222;6.624;2023-05-29T21:44:54;16.80;1.00
3876;DHT22;1953;51.222;6.624;2023-05-29T21:49:37;16.60;1.00
3876;DHT22;1953;51.222;6.624;2023-05-29T21:54:19;16.50;1.00
3876;DHT22;1953;51.222;6.624;2023-05-29T21:59:03;16.30;1.00
3876;DHT22;1953;51.222;6.624;2023-05-29T22:03:46;16.20;1.00
3876;DHT22;1953;51.222;6.624;2023-05-29T22:08:40;16.20;1.00
3876;DHT22;1953;51.222;6.624;2023-05-29T22:13:22;16.00;1.00
3876;DHT22;1953;51.222;6.624;2023-05-29T22:18:06;16.00;1.00
3876;DHT22;1953;51.222;6.624;2023-05-29T22:22:49;15.90;1.00
3876;DHT22;1953;51.222;6.624;2023-05-29T22:27:31;15.70;1.00
3876;DHT22;1953;51.222;6.624;2023-05-29T22:32:14;15.60;1.00
3876;DHT22;1953;51.222;6.624;2023-05-29T22:36:58;15.50;1.00
3876;DHT22;1953;51.222;6.624;2023-05-29T22:41:40;15.40;1.00
3876;DHT22;1953;51.222;6.624;2023-05-29T22:46:23;15.30;1.00
3876;DHT22;1953;51.222;6.624;2023-05-29T22:51:06;15.20;1.00
3876;DHT22;1953;51.222;6.624;2023-05-29T22:55:51;15.10;1.00
3876;DHT22;1953;51.222;6.624;2023-05-29T23:00:33;14.90;1.00
3876;DHT22;1953;51.222;6.624;2023-05-29T23:05:17;14.80;1.00
3876;DHT22;1953;51.222;6.624;2023-05-29T23:10:00;14.70;1.00
3876;DHT22;1953;51.222;6.624;2023-05-29T23:14:43;14.70;1.00
3876;DHT22;1953;51.222;6.624;2023-05-29T23:19:26;14.60;1.00
3876;DHT22;1953;51.222;6.624;2023-05-29T23:24:09;14.50;1.00
3876;DHT22;1953;51.222;6.624;2023-05-29T23:28:52;14.40;1.00
3876;DHT22;1953;51.222;6.624;2023-05-29T23:33:36;14.40;1.00
3876;DHT22;1953;51.222;6.624;2023-05-29T23:38:18;14.40;1.00
3876;DHT22;1953;51.222;6.624;2023-05-29T23:43:01;14.40;1.00
3876;DHT22;1953;51.222;6.624;2023-05-29T23:47:44;14.40;1.00
3876;DHT22;1953;51.222;6.624;2023-05-29T23:52:27;14.30;1.00
3876;DHT22;1953;51.222;6.624;2023-05-29T23:57:10;14.20;1.00
